sensor_id;sensor_type;location;lat;lon;timestamp;P1;durP1;ratioP1;P2;durP2;ratioP2
74626;SDS011;63132;52.268;5.192;2023-01-01T00:01:24;33.95;;;19.02;;
74626;SDS011;63132;52.268;5.192;2023-01-01T00:03:50;31.08;;;17.63;;
74626;SDS011;63132;52.268;5.192;2023-01-01T00:06:16;28.70;;;17.00;;
74626;SDS011;63132;52.268;5.192;2023-01-01T00:08:42;32.77;;;17.80;;
74626;SDS011;63132;52.268;5.192;2023-01-01T00:11:08;31.57;;;18.40;;
74626;SDS011;63132;52.268;5.192;2023-01-01T00:13:35;30.88;;;17.08;;
74626;SDS011;63132;52.268;5.192;2023-01-01T00:16:08;34.13;;;17.45;;
74626;SDS011;63132;52.268;5.192;2023-01-01T00:18:36;29.02;;;16.92;;
74626;SDS011;63132;52.268;5.192;2023-01-01T00:21:06;29.83;;;16.10;;
74626;SDS011;63132;52.268;5.192;2023-01-01T00:23:34;30.10;;;16.70;;
74626;SDS011;63132;52.268;5.192;2023-01-01T00:26:00;26.05;;;13.57;;
74626;SDS011;63132;52.268;5.192;2023-01-01T00:28:25;28.98;;;14.05;;
74626;SDS011;63132;52.268;5.192;2023-01-01T00:30:51;26.98;;;13.52;;
74626;SDS011;63132;52.268;5.192;2023-01-01T00:33:17;27.33;;;12.98;;
74626;SDS011;63132;52.268;5.192;2023-01-01T00:35:42;26.65;;;13.77;;
74626;SDS011;63132;52.268;5.192;2023-01-01T00:38:08;30.40;;;13.45;;
74626;SDS011;63132;52.268;5.192;2023-01-01T00:40:33;29.53;;;14.47;;
74626;SDS011;63132;52.268;5.192;2023-01-01T00:42:59;28.10;;;13.57;;
74626;SDS011;63132;52.268;5.192;2023-01-01T00:45:24;26.60;;;13.27;;
74626;SDS011;63132;52.268;5.192;2023-01-01T00:47:50;29.63;;;13.77;;
74626;SDS011;63132;52.268;5.192;2023-01-01T00:50:17;24.20;;;12.32;;
74626;SDS011;63132;52.268;5.192;2023-01-01T00:52:43;27.33;;;13.00;;
74626;SDS011;63132;52.268;5.192;2023-01-01T00:55:09;24.37;;;11.70;;
74626;SDS011;63132;52.268;5.192;2023-01-01T00:57:35;30.02;;;13.02;;
74626;SDS011;63132;52.268;5.192;2023-01-01T01:00:00;26.90;;;12.18;;
74626;SDS011;63132;52.268;5.192;2023-01-01T01:02:25;24.60;;;11.73;;
74626;SDS011;63132;52.268;5.192;2023-01-01T01:04:51;24.20;;;11.63;;
74626;SDS011;63132;52.268;5.192;2023-01-01T01:07:16;23.95;;;11.05;;
74626;SDS011;63132;52.268;5.192;2023-01-01T01:09:41;23.77;;;10.90;;
74626;SDS011;63132;52.268;5.192;2023-01-01T01:12:07;20.92;;;9.57;;
74626;SDS011;63132;52.268;5.192;2023-01-01T01:14:32;23.90;;;10.00;;
74626;SDS011;63132;52.268;5.192;2023-01-01T01:16:58;20.97;;;9.03;;
74626;SDS011;63132;52.268;5.192;2023-01-01T01:19:23;21.90;;;9.40;;
74626;SDS011;63132;52.268;5.192;2023-01-01T01:21:49;23.08;;;8.63;;
74626;SDS011;63132;52.268;5.192;2023-01-01T01:24:16;22.30;;;8.10;;
74626;SDS011;63132;52.268;5.192;2023-01-01T01:26:41;18.25;;;7.15;;
74626;SDS011;63132;52.268;5.192;2023-01-01T01:29:07;23.80;;;7.50;;
74626;SDS011;63132;52.268;5.192;2023-01-01T01:31:32;20.93;;;7.10;;
74626;SDS011;63132;52.268;5.192;2023-01-01T01:33:59;19.20;;;6.60;;
74626;SDS011;63132;52.268;5.192;2023-01-01T01:36:25;21.15;;;6.32;;
74626;SDS011;63132;52.268;5.192;2023-01-01T01:38:51;16.63;;;5.90;;
74626;SDS011;63132;52.268;5.192;2023-01-01T01:41:18;18.30;;;6.10;;
74626;SDS011;63132;52.268;5.192;2023-01-01T01:44:43;16.90;;;6.07;;
74626;SDS011;63132;52.268;5.192;2023-01-01T01:46:50;17.75;;;5.85;;
74626;SDS011;63132;52.268;5.192;2023-01-01T01:49:17;15.60;;;5.43;;
74626;SDS011;63132;52.268;5.192;2023-01-01T01:51:48;15.63;;;5.10;;
74626;SDS011;63132;52.268;5.192;2023-01-01T01:54:16;18.97;;;5.17;;
74626;SDS011;63132;52.268;5.192;2023-01-01T01:56:49;18.27;;;5.32;;
74626;SDS011;63132;52.268;5.192;2023-01-01T01:59:19;17.80;;;4.67;;
74626;SDS011;63132;52.268;5.192;2023-01-01T02:01:49;15.83;;;4.43;;
74626;SDS011;63132;52.268;5.192;2023-01-01T02:04:14;13.87;;;4.87;;
74626;SDS011;63132;52.268;5.192;2023-01-01T02:06:41;11.75;;;4.57;;
74626;SDS011;63132;52.268;5.192;2023-01-01T02:09:07;15.02;;;4.95;;
74626;SDS011;63132;52.268;5.192;2023-01-01T02:11:32;12.97;;;4.57;;
74626;SDS011;63132;52.268;5.192;2023-01-01T02:13:58;18.50;;;4.97;;
74626;SDS011;63132;52.268;5.192;2023-01-01T02:16:32;15.73;;;5.43;;
74626;SDS011;63132;52.268;5.192;2023-01-01T02:27:25;12.75;;;4.10;;
74626;SDS011;63132;52.268;5.192;2023-01-01T02:30:04;12.90;;;4.32;;
74626;SDS011;63132;52.268;5.192;2023-01-01T02:32:34;15.82;;;4.43;;
74626;SDS011;63132;52.268;5.192;2023-01-01T02:35:07;12.73;;;4.18;;
74626;SDS011;63132;52.268;5.192;2023-01-01T02:37:58;13.63;;;4.53;;
74626;SDS011;63132;52.268;5.192;2023-01-01T02:40:28;14.57;;;4.10;;
74626;SDS011;63132;52.268;5.192;2023-01-01T02:42:54;10.60;;;3.80;;
74626;SDS011;63132;52.268;5.192;2023-01-01T02:45:21;13.52;;;4.03;;
74626;SDS011;63132;52.268;5.192;2023-01-01T02:47:46;12.60;;;3.80;;
74626;SDS011;63132;52.268;5.192;2023-01-01T02:53:00;11.50;;;3.50;;
74626;SDS011;63132;52.268;5.192;2023-01-01T02:55:52;16.23;;;3.85;;
74626;SDS011;63132;52.268;5.192;2023-01-01T02:58:27;13.20;;;3.40;;
74626;SDS011;63132;52.268;5.192;2023-01-01T03:04:09;11.73;;;3.58;;
74626;SDS011;63132;52.268;5.192;2023-01-01T03:07:00;10.77;;;2.97;;
74626;SDS011;63132;52.268;5.192;2023-01-01T03:12:58;11.55;;;3.08;;
74626;SDS011;63132;52.268;5.192;2023-01-01T03:15:29;10.82;;;3.40;;
74626;SDS011;63132;52.268;5.192;2023-01-01T03:18:04;11.73;;;2.80;;
74626;SDS011;63132;52.268;5.192;2023-01-01T03:20:35;12.52;;;3.90;;
74626;SDS011;63132;52.268;5.192;2023-01-01T03:23:06;15.35;;;3.55;;
74626;SDS011;63132;52.268;5.192;2023-01-01T03:25:42;14.57;;;3.30;;
74626;SDS011;63132;52.268;5.192;2023-01-01T03:28:13;14.93;;;3.50;;
74626;SDS011;63132;52.268;5.192;2023-01-01T03:30:44;10.50;;;2.83;;
74626;SDS011;63132;52.268;5.192;2023-01-01T03:33:20;14.50;;;3.20;;
74626;SDS011;63132;52.268;5.192;2023-01-01T03:36:02;12.27;;;3.00;;
74626;SDS011;63132;52.268;5.192;2023-01-01T03:38:37;9.57;;;2.53;;
74626;SDS011;63132;52.268;5.192;2023-01-01T03:41:08;9.13;;;2.60;;
74626;SDS011;63132;52.268;5.192;2023-01-01T03:43:38;11.75;;;3.15;;
74626;SDS011;63132;52.268;5.192;2023-01-01T03:46:11;11.95;;;3.10;;
74626;SDS011;63132;52.268;5.192;2023-01-01T03:48:38;13.30;;;3.03;;
74626;SDS011;63132;52.268;5.192;2023-01-01T03:54:08;10.82;;;2.78;;
74626;SDS011;63132;52.268;5.192;2023-01-01T03:57:06;10.27;;;2.78;;
74626;SDS011;63132;52.268;5.192;2023-01-01T04:02:36;10.82;;;2.90;;
74626;SDS011;63132;52.268;5.192;2023-01-01T04:05:18;12.63;;;3.33;;
74626;SDS011;63132;52.268;5.192;2023-01-01T04:07:45;11.10;;;2.90;;
74626;SDS011;63132;52.268;5.192;2023-01-01T04:10:12;10.60;;;3.10;;
74626;SDS011;63132;52.268;5.192;2023-01-01T04:12:50;12.75;;;2.90;;
74626;SDS011;63132;52.268;5.192;2023-01-01T04:15:19;11.20;;;3.17;;
74626;SDS011;63132;52.268;5.192;2023-01-01T04:17:46;11.48;;;2.83;;
74626;SDS011;63132;52.268;5.192;2023-01-01T04:20:12;9.70;;;2.63;;
74626;SDS011;63132;52.268;5.192;2023-01-01T04:22:37;11.68;;;2.75;;
74626;SDS011;63132;52.268;5.192;2023-01-01T04:25:03;15.40;;;2.78;;
74626;SDS011;63132;52.268;5.192;2023-01-01T04:27:29;8.63;;;2.22;;
74626;SDS011;63132;52.268;5.192;2023-01-01T04:29:55;9.63;;;2.20;;
74626;SDS011;63132;52.268;5.192;2023-01-01T04:32:20;9.07;;;2.37;;
74626;SDS011;63132;52.268;5.192;2023-01-01T04:34:46;12.20;;;2.03;;
74626;SDS011;63132;52.268;5.192;2023-01-01T04:37:11;6.87;;;2.20;;
74626;SDS011;63132;52.268;5.192;2023-01-01T04:39:37;9.25;;;2.47;;
74626;SDS011;63132;52.268;5.192;2023-01-01T04:42:02;8.10;;;2.25;;
74626;SDS011;63132;52.268;5.192;2023-01-01T04:44:28;6.20;;;1.70;;
74626;SDS011;63132;52.268;5.192;2023-01-01T04:46:53;9.40;;;2.20;;
74626;SDS011;63132;52.268;5.192;2023-01-01T04:49:19;5.43;;;1.88;;
74626;SDS011;63132;52.268;5.192;2023-01-01T04:51:44;7.30;;;2.07;;
74626;SDS011;63132;52.268;5.192;2023-01-01T04:54:10;9.00;;;2.27;;
74626;SDS011;63132;52.268;5.192;2023-01-01T04:56:35;9.57;;;1.90;;
74626;SDS011;63132;52.268;5.192;2023-01-01T04:59:01;7.63;;;2.05;;
74626;SDS011;63132;52.268;5.192;2023-01-01T05:01:27;10.07;;;2.20;;
74626;SDS011;63132;52.268;5.192;2023-01-01T05:03:53;8.45;;;2.03;;
74626;SDS011;63132;52.268;5.192;2023-01-01T05:06:19;12.20;;;2.40;;
74626;SDS011;63132;52.268;5.192;2023-01-01T05:08:47;10.27;;;2.25;;
74626;SDS011;63132;52.268;5.192;2023-01-01T05:11:17;11.20;;;2.63;;
74626;SDS011;63132;52.268;5.192;2023-01-01T05:13:46;11.77;;;2.67;;
74626;SDS011;63132;52.268;5.192;2023-01-01T05:16:13;12.43;;;2.90;;
74626;SDS011;63132;52.268;5.192;2023-01-01T05:18:40;10.73;;;2.30;;
74626;SDS011;63132;52.268;5.192;2023-01-01T05:21:07;10.25;;;2.70;;
74626;SDS011;63132;52.268;5.192;2023-01-01T05:23:36;11.45;;;2.70;;
74626;SDS011;63132;52.268;5.192;2023-01-01T05:26:35;13.80;;;2.70;;
74626;SDS011;63132;52.268;5.192;2023-01-01T05:28:56;11.00;;;2.67;;
74626;SDS011;63132;52.268;5.192;2023-01-01T05:31:23;8.68;;;2.50;;
74626;SDS011;63132;52.268;5.192;2023-01-01T05:33:51;11.05;;;2.72;;
74626;SDS011;63132;52.268;5.192;2023-01-01T05:36:17;11.57;;;2.63;;
74626;SDS011;63132;52.268;5.192;2023-01-01T05:38:45;10.18;;;2.40;;
74626;SDS011;63132;52.268;5.192;2023-01-01T05:41:11;10.60;;;2.30;;
74626;SDS011;63132;52.268;5.192;2023-01-01T05:43:38;11.27;;;2.38;;
74626;SDS011;63132;52.268;5.192;2023-01-01T05:46:05;10.93;;;2.72;;
74626;SDS011;63132;52.268;5.192;2023-01-01T05:48:32;10.85;;;2.60;;
74626;SDS011;63132;52.268;5.192;2023-01-01T05:51:01;10.90;;;2.67;;
74626;SDS011;63132;52.268;5.192;2023-01-01T05:53:30;14.05;;;2.85;;
74626;SDS011;63132;52.268;5.192;2023-01-01T05:55:57;11.97;;;2.57;;
74626;SDS011;63132;52.268;5.192;2023-01-01T05:58:23;12.35;;;2.42;;
74626;SDS011;63132;52.268;5.192;2023-01-01T06:00:48;9.23;;;2.30;;
74626;SDS011;63132;52.268;5.192;2023-01-01T06:03:14;11.95;;;2.63;;
74626;SDS011;63132;52.268;5.192;2023-01-01T06:05:40;13.80;;;2.97;;
74626;SDS011;63132;52.268;5.192;2023-01-01T06:08:05;13.37;;;2.57;;
74626;SDS011;63132;52.268;5.192;2023-01-01T06:10:30;15.10;;;2.80;;
74626;SDS011;63132;52.268;5.192;2023-01-01T06:12:56;14.45;;;2.60;;
74626;SDS011;63132;52.268;5.192;2023-01-01T06:15:23;13.48;;;2.58;;
74626;SDS011;63132;52.268;5.192;2023-01-01T06:17:51;11.48;;;2.20;;
74626;SDS011;63132;52.268;5.192;2023-01-01T06:20:17;12.73;;;2.40;;
74626;SDS011;63132;52.268;5.192;2023-01-01T06:22:42;13.17;;;2.60;;
74626;SDS011;63132;52.268;5.192;2023-01-01T06:25:08;14.25;;;2.67;;
74626;SDS011;63132;52.268;5.192;2023-01-01T06:27:35;12.73;;;2.33;;
74626;SDS011;63132;52.268;5.192;2023-01-01T06:30:01;12.32;;;2.28;;
74626;SDS011;63132;52.268;5.192;2023-01-01T06:32:30;14.07;;;2.45;;
74626;SDS011;63132;52.268;5.192;2023-01-01T06:34:55;11.75;;;2.40;;
74626;SDS011;63132;52.268;5.192;2023-01-01T06:37:21;10.57;;;2.73;;
74626;SDS011;63132;52.268;5.192;2023-01-01T06:39:46;14.60;;;2.57;;
74626;SDS011;63132;52.268;5.192;2023-01-01T06:42:12;12.77;;;2.55;;
74626;SDS011;63132;52.268;5.192;2023-01-01T06:44:37;10.50;;;2.80;;
74626;SDS011;63132;52.268;5.192;2023-01-01T06:47:02;12.67;;;2.47;;
74626;SDS011;63132;52.268;5.192;2023-01-01T06:49:28;15.18;;;2.90;;
74626;SDS011;63132;52.268;5.192;2023-01-01T06:51:53;13.53;;;3.03;;
74626;SDS011;63132;52.268;5.192;2023-01-01T06:54:19;14.00;;;2.80;;
74626;SDS011;63132;52.268;5.192;2023-01-01T06:56:44;12.60;;;2.97;;
74626;SDS011;63132;52.268;5.192;2023-01-01T06:59:10;15.77;;;2.90;;
74626;SDS011;63132;52.268;5.192;2023-01-01T07:01:35;13.13;;;3.03;;
74626;SDS011;63132;52.268;5.192;2023-01-01T07:04:05;13.32;;;2.58;;
74626;SDS011;63132;52.268;5.192;2023-01-01T07:06:33;12.83;;;2.43;;
74626;SDS011;63132;52.268;5.192;2023-01-01T07:08:59;13.80;;;2.70;;
74626;SDS011;63132;52.268;5.192;2023-01-01T07:11:25;11.20;;;2.75;;
74626;SDS011;63132;52.268;5.192;2023-01-01T07:13:51;9.80;;;2.38;;
74626;SDS011;63132;52.268;5.192;2023-01-01T07:16:17;11.53;;;2.63;;
74626;SDS011;63132;52.268;5.192;2023-01-01T07:18:42;12.85;;;2.28;;
74626;SDS011;63132;52.268;5.192;2023-01-01T07:21:24;12.07;;;2.50;;
74626;SDS011;63132;52.268;5.192;2023-01-01T07:23:53;10.20;;;2.05;;
74626;SDS011;63132;52.268;5.192;2023-01-01T07:26:20;15.38;;;2.63;;
74626;SDS011;63132;52.268;5.192;2023-01-01T07:28:47;9.50;;;2.03;;
74626;SDS011;63132;52.268;5.192;2023-01-01T07:31:12;13.80;;;2.33;;
74626;SDS011;63132;52.268;5.192;2023-01-01T07:33:38;9.53;;;2.20;;
74626;SDS011;63132;52.268;5.192;2023-01-01T07:36:03;13.07;;;2.28;;
74626;SDS011;63132;52.268;5.192;2023-01-01T07:38:28;11.27;;;2.15;;
74626;SDS011;63132;52.268;5.192;2023-01-01T07:40:54;13.70;;;2.20;;
74626;SDS011;63132;52.268;5.192;2023-01-01T07:43:19;12.47;;;2.43;;
74626;SDS011;63132;52.268;5.192;2023-01-01T07:45:44;13.53;;;2.73;;
74626;SDS011;63132;52.268;5.192;2023-01-01T07:48:12;15.93;;;2.77;;
74626;SDS011;63132;52.268;5.192;2023-01-01T07:50:39;15.68;;;2.33;;
74626;SDS011;63132;52.268;5.192;2023-01-01T07:53:05;17.60;;;3.10;;
74626;SDS011;63132;52.268;5.192;2023-01-01T07:55:30;13.27;;;2.57;;
74626;SDS011;63132;52.268;5.192;2023-01-01T07:57:57;14.43;;;2.63;;
74626;SDS011;63132;52.268;5.192;2023-01-01T08:00:23;13.73;;;2.30;;
74626;SDS011;63132;52.268;5.192;2023-01-01T08:02:48;16.00;;;2.80;;
74626;SDS011;63132;52.268;5.192;2023-01-01T08:05:14;13.17;;;2.90;;
74626;SDS011;63132;52.268;5.192;2023-01-01T08:07:39;14.40;;;2.30;;
74626;SDS011;63132;52.268;5.192;2023-01-01T08:10:10;12.82;;;2.72;;
74626;SDS011;63132;52.268;5.192;2023-01-01T08:12:35;14.17;;;2.57;;
74626;SDS011;63132;52.268;5.192;2023-01-01T08:15:00;13.00;;;2.50;;
74626;SDS011;63132;52.268;5.192;2023-01-01T08:17:26;12.67;;;2.53;;
74626;SDS011;63132;52.268;5.192;2023-01-01T08:19:51;13.67;;;2.37;;
74626;SDS011;63132;52.268;5.192;2023-01-01T08:22:16;13.50;;;2.45;;
74626;SDS011;63132;52.268;5.192;2023-01-01T08:24:42;13.60;;;2.40;;
74626;SDS011;63132;52.268;5.192;2023-01-01T08:27:09;14.00;;;2.50;;
74626;SDS011;63132;52.268;5.192;2023-01-01T08:29:37;14.32;;;2.28;;
74626;SDS011;63132;52.268;5.192;2023-01-01T08:32:02;11.77;;;1.97;;
74626;SDS011;63132;52.268;5.192;2023-01-01T08:34:28;15.07;;;2.10;;
74626;SDS011;63132;52.268;5.192;2023-01-01T08:36:53;10.13;;;2.20;;
74626;SDS011;63132;52.268;5.192;2023-01-01T08:39:19;11.38;;;2.08;;
74626;SDS011;63132;52.268;5.192;2023-01-01T08:41:44;12.73;;;2.33;;
74626;SDS011;63132;52.268;5.192;2023-01-01T08:44:09;11.20;;;2.53;;
74626;SDS011;63132;52.268;5.192;2023-01-01T08:46:35;12.57;;;1.93;;
74626;SDS011;63132;52.268;5.192;2023-01-01T08:49:00;14.50;;;2.70;;
74626;SDS011;63132;52.268;5.192;2023-01-01T08:51:25;14.87;;;2.63;;
74626;SDS011;63132;52.268;5.192;2023-01-01T08:53:51;11.80;;;2.50;;
74626;SDS011;63132;52.268;5.192;2023-01-01T08:56:16;11.83;;;1.90;;
74626;SDS011;63132;52.268;5.192;2023-01-01T08:58:41;12.50;;;2.20;;
74626;SDS011;63132;52.268;5.192;2023-01-01T09:01:08;12.93;;;2.50;;
74626;SDS011;63132;52.268;5.192;2023-01-01T09:03:34;13.98;;;2.42;;
74626;SDS011;63132;52.268;5.192;2023-01-01T09:06:00;10.70;;;2.65;;
74626;SDS011;63132;52.268;5.192;2023-01-01T09:08:26;11.52;;;2.10;;
74626;SDS011;63132;52.268;5.192;2023-01-01T09:10:51;13.15;;;2.63;;
74626;SDS011;63132;52.268;5.192;2023-01-01T09:13:18;10.05;;;2.10;;
74626;SDS011;63132;52.268;5.192;2023-01-01T09:15:44;12.55;;;2.42;;
74626;SDS011;63132;52.268;5.192;2023-01-01T09:18:10;11.40;;;2.40;;
74626;SDS011;63132;52.268;5.192;2023-01-01T09:20:37;16.20;;;2.53;;
74626;SDS011;63132;52.268;5.192;2023-01-01T09:23:03;12.68;;;2.72;;
74626;SDS011;63132;52.268;5.192;2023-01-01T09:25:29;12.38;;;2.58;;
74626;SDS011;63132;52.268;5.192;2023-01-01T09:27:56;14.52;;;2.33;;
74626;SDS011;63132;52.268;5.192;2023-01-01T09:30:22;13.45;;;2.58;;
74626;SDS011;63132;52.268;5.192;2023-01-01T09:32:48;14.50;;;2.30;;
74626;SDS011;63132;52.268;5.192;2023-01-01T09:35:13;14.68;;;2.40;;
74626;SDS011;63132;52.268;5.192;2023-01-01T09:37:39;15.67;;;2.63;;
74626;SDS011;63132;52.268;5.192;2023-01-01T09:40:04;12.77;;;2.53;;
74626;SDS011;63132;52.268;5.192;2023-01-01T09:42:49;12.80;;;2.27;;
74626;SDS011;63132;52.268;5.192;2023-01-01T09:45:24;15.07;;;2.80;;
74626;SDS011;63132;52.268;5.192;2023-01-01T09:47:59;13.32;;;2.50;;
74626;SDS011;63132;52.268;5.192;2023-01-01T09:50:40;15.73;;;2.60;;
74626;SDS011;63132;52.268;5.192;2023-01-01T09:55:43;14.80;;;2.67;;
74626;SDS011;63132;52.268;5.192;2023-01-01T09:58:10;14.38;;;2.50;;
74626;SDS011;63132;52.268;5.192;2023-01-01T10:00:36;12.05;;;2.58;;
74626;SDS011;63132;52.268;5.192;2023-01-01T10:03:16;12.35;;;2.45;;
74626;SDS011;63132;52.268;5.192;2023-01-01T10:14:34;11.77;;;2.65;;
74626;SDS011;63132;52.268;5.192;2023-01-01T10:17:11;15.45;;;2.80;;
74626;SDS011;63132;52.268;5.192;2023-01-01T10:19:44;14.60;;;2.40;;
74626;SDS011;63132;52.268;5.192;2023-01-01T10:22:16;11.80;;;2.53;;
74626;SDS011;63132;52.268;5.192;2023-01-01T10:24:49;14.02;;;3.10;;
74626;SDS011;63132;52.268;5.192;2023-01-01T10:27:27;13.57;;;2.47;;
74626;SDS011;63132;52.268;5.192;2023-01-01T10:29:53;14.38;;;2.83;;
74626;SDS011;63132;52.268;5.192;2023-01-01T10:32:21;13.85;;;2.65;;
74626;SDS011;63132;52.268;5.192;2023-01-01T10:34:55;10.40;;;2.58;;
74626;SDS011;63132;52.268;5.192;2023-01-01T10:37:21;14.82;;;2.95;;
74626;SDS011;63132;52.268;5.192;2023-01-01T10:39:48;15.27;;;3.60;;
74626;SDS011;63132;52.268;5.192;2023-01-01T10:42:14;15.82;;;2.70;;
74626;SDS011;63132;52.268;5.192;2023-01-01T10:44:40;11.88;;;2.53;;
74626;SDS011;63132;52.268;5.192;2023-01-01T10:49:53;17.27;;;2.95;;
74626;SDS011;63132;52.268;5.192;2023-01-01T10:52:38;12.83;;;2.67;;
74626;SDS011;63132;52.268;5.192;2023-01-01T10:55:05;13.77;;;2.97;;
74626;SDS011;63132;52.268;5.192;2023-01-01T10:57:44;14.98;;;3.22;;
74626;SDS011;63132;52.268;5.192;2023-01-01T11:00:15;15.68;;;3.10;;
74626;SDS011;63132;52.268;5.192;2023-01-01T11:08:36;18.25;;;2.90;;
74626;SDS011;63132;52.268;5.192;2023-01-01T11:11:04;16.00;;;3.13;;
74626;SDS011;63132;52.268;5.192;2023-01-01T11:13:30;13.53;;;3.20;;
74626;SDS011;63132;52.268;5.192;2023-01-01T11:15:57;16.63;;;2.57;;
74626;SDS011;63132;52.268;5.192;2023-01-01T11:18:27;12.95;;;2.78;;
74626;SDS011;63132;52.268;5.192;2023-01-01T11:20:59;15.20;;;3.17;;
74626;SDS011;63132;52.268;5.192;2023-01-01T11:28:36;17.60;;;2.97;;
74626;SDS011;63132;52.268;5.192;2023-01-01T11:33:31;14.70;;;3.10;;
74626;SDS011;63132;52.268;5.192;2023-01-01T11:36:00;16.08;;;2.50;;
74626;SDS011;63132;52.268;5.192;2023-01-01T11:38:26;14.55;;;2.75;;
74626;SDS011;63132;52.268;5.192;2023-01-01T11:40:52;18.80;;;3.80;;
74626;SDS011;63132;52.268;5.192;2023-01-01T11:43:24;16.00;;;3.00;;
74626;SDS011;63132;52.268;5.192;2023-01-01T11:45:52;16.17;;;3.13;;
74626;SDS011;63132;52.268;5.192;2023-01-01T11:50:51;14.15;;;3.03;;
74626;SDS011;63132;52.268;5.192;2023-01-01T12:01:36;16.38;;;3.17;;
74626;SDS011;63132;52.268;5.192;2023-01-01T12:04:15;16.40;;;2.95;;
74626;SDS011;63132;52.268;5.192;2023-01-01T12:06:56;15.57;;;3.20;;
74626;SDS011;63132;52.268;5.192;2023-01-01T12:09:29;18.98;;;3.13;;
74626;SDS011;63132;52.268;5.192;2023-01-01T12:12:05;16.05;;;3.28;;
74626;SDS011;63132;52.268;5.192;2023-01-01T12:17:31;12.88;;;2.67;;
74626;SDS011;63132;52.268;5.192;2023-01-01T12:20:12;14.05;;;3.60;;
74626;SDS011;63132;52.268;5.192;2023-01-01T12:22:53;19.05;;;3.80;;
74626;SDS011;63132;52.268;5.192;2023-01-01T12:25:20;16.67;;;3.63;;
74626;SDS011;63132;52.268;5.192;2023-01-01T12:39:25;13.55;;;3.58;;
74626;SDS011;63132;52.268;5.192;2023-01-01T12:42:51;14.88;;;3.10;;
74626;SDS011;63132;52.268;5.192;2023-01-01T12:45:09;16.73;;;3.50;;
74626;SDS011;63132;52.268;5.192;2023-01-01T13:01:03;16.10;;;3.40;;
74626;SDS011;63132;52.268;5.192;2023-01-01T13:03:51;15.05;;;3.65;;
74626;SDS011;63132;52.268;5.192;2023-01-01T13:06:19;16.15;;;3.25;;
74626;SDS011;63132;52.268;5.192;2023-01-01T13:08:50;19.30;;;3.90;;
74626;SDS011;63132;52.268;5.192;2023-01-01T13:11:21;17.75;;;3.50;;
74626;SDS011;63132;52.268;5.192;2023-01-01T13:13:49;21.23;;;3.33;;
74626;SDS011;63132;52.268;5.192;2023-01-01T13:16:25;18.07;;;3.50;;
74626;SDS011;63132;52.268;5.192;2023-01-01T13:18:56;19.23;;;3.87;;
74626;SDS011;63132;52.268;5.192;2023-01-01T13:21:22;19.17;;;3.97;;
74626;SDS011;63132;52.268;5.192;2023-01-01T13:23:50;17.42;;;3.15;;
74626;SDS011;63132;52.268;5.192;2023-01-01T13:28:41;18.30;;;3.30;;
74626;SDS011;63132;52.268;5.192;2023-01-01T13:31:16;16.70;;;3.33;;
74626;SDS011;63132;52.268;5.192;2023-01-01T13:33:41;17.63;;;3.45;;
74626;SDS011;63132;52.268;5.192;2023-01-01T13:38:48;18.02;;;3.50;;
74626;SDS011;63132;52.268;5.192;2023-01-01T13:43:52;20.00;;;3.63;;
74626;SDS011;63132;52.268;5.192;2023-01-01T14:00:18;15.85;;;3.13;;
74626;SDS011;63132;52.268;5.192;2023-01-01T14:02:45;18.75;;;3.83;;
74626;SDS011;63132;52.268;5.192;2023-01-01T14:05:18;18.20;;;3.85;;
74626;SDS011;63132;52.268;5.192;2023-01-01T14:07:50;19.25;;;4.05;;
74626;SDS011;63132;52.268;5.192;2023-01-01T14:10:20;17.52;;;3.30;;
74626;SDS011;63132;52.268;5.192;2023-01-01T14:12:48;18.42;;;3.92;;
74626;SDS011;63132;52.268;5.192;2023-01-01T14:17:57;18.00;;;3.70;;
74626;SDS011;63132;52.268;5.192;2023-01-01T14:20:35;15.93;;;3.80;;
74626;SDS011;63132;52.268;5.192;2023-01-01T14:23:08;21.23;;;3.87;;
74626;SDS011;63132;52.268;5.192;2023-01-01T14:25:35;17.80;;;3.80;;
74626;SDS011;63132;52.268;5.192;2023-01-01T14:28:01;15.55;;;2.92;;
74626;SDS011;63132;52.268;5.192;2023-01-01T14:30:29;15.90;;;3.40;;
74626;SDS011;63132;52.268;5.192;2023-01-01T14:33:00;17.92;;;4.22;;
74626;SDS011;63132;52.268;5.192;2023-01-01T14:35:26;17.33;;;4.60;;
74626;SDS011;63132;52.268;5.192;2023-01-01T14:37:53;20.63;;;4.32;;
74626;SDS011;63132;52.268;5.192;2023-01-01T14:40:21;18.55;;;3.78;;
74626;SDS011;63132;52.268;5.192;2023-01-01T14:42:53;15.50;;;3.30;;
74626;SDS011;63132;52.268;5.192;2023-01-01T14:45:31;18.08;;;3.60;;
74626;SDS011;63132;52.268;5.192;2023-01-01T14:48:00;15.55;;;3.70;;
74626;SDS011;63132;52.268;5.192;2023-01-01T14:50:28;17.25;;;3.60;;
74626;SDS011;63132;52.268;5.192;2023-01-01T14:53:10;17.00;;;3.42;;
74626;SDS011;63132;52.268;5.192;2023-01-01T14:55:43;16.38;;;3.85;;
74626;SDS011;63132;52.268;5.192;2023-01-01T14:58:11;18.35;;;3.70;;
74626;SDS011;63132;52.268;5.192;2023-01-01T15:00:41;16.60;;;3.67;;
74626;SDS011;63132;52.268;5.192;2023-01-01T15:03:14;19.20;;;3.80;;
74626;SDS011;63132;52.268;5.192;2023-01-01T15:05:44;15.77;;;3.50;;
74626;SDS011;63132;52.268;5.192;2023-01-01T15:08:20;18.02;;;3.75;;
74626;SDS011;63132;52.268;5.192;2023-01-01T15:10:47;16.88;;;3.92;;
74626;SDS011;63132;52.268;5.192;2023-01-01T15:13:21;18.17;;;3.97;;
74626;SDS011;63132;52.268;5.192;2023-01-01T15:15:48;17.40;;;3.90;;
74626;SDS011;63132;52.268;5.192;2023-01-01T15:23:52;16.90;;;4.20;;
74626;SDS011;63132;52.268;5.192;2023-01-01T15:26:27;17.50;;;4.40;;
74626;SDS011;63132;52.268;5.192;2023-01-01T15:29:09;19.42;;;4.03;;
74626;SDS011;63132;52.268;5.192;2023-01-01T15:31:43;17.00;;;4.25;;
74626;SDS011;63132;52.268;5.192;2023-01-01T15:34:20;20.17;;;4.85;;
74626;SDS011;63132;52.268;5.192;2023-01-01T15:36:49;15.45;;;4.80;;
74626;SDS011;63132;52.268;5.192;2023-01-01T15:39:16;16.13;;;4.17;;
74626;SDS011;63132;52.268;5.192;2023-01-01T15:41:45;23.50;;;4.83;;
74626;SDS011;63132;52.268;5.192;2023-01-01T15:44:18;19.10;;;4.68;;
74626;SDS011;63132;52.268;5.192;2023-01-01T15:46:51;20.45;;;4.65;;
74626;SDS011;63132;52.268;5.192;2023-01-01T15:49:24;15.97;;;4.57;;
74626;SDS011;63132;52.268;5.192;2023-01-01T15:51:52;18.13;;;5.07;;
74626;SDS011;63132;52.268;5.192;2023-01-01T15:54:20;17.33;;;4.68;;
74626;SDS011;63132;52.268;5.192;2023-01-01T15:56:45;16.50;;;4.28;;
74626;SDS011;63132;52.268;5.192;2023-01-01T15:59:27;16.67;;;4.53;;
74626;SDS011;63132;52.268;5.192;2023-01-01T16:02:06;18.35;;;4.72;;
74626;SDS011;63132;52.268;5.192;2023-01-01T16:04:38;15.68;;;4.60;;
74626;SDS011;63132;52.268;5.192;2023-01-01T16:07:04;17.17;;;4.80;;
74626;SDS011;63132;52.268;5.192;2023-01-01T16:09:40;22.27;;;5.63;;
74626;SDS011;63132;52.268;5.192;2023-01-01T16:12:07;17.63;;;5.68;;
74626;SDS011;63132;52.268;5.192;2023-01-01T16:14:32;17.60;;;5.63;;
74626;SDS011;63132;52.268;5.192;2023-01-01T16:16:58;19.77;;;5.50;;
74626;SDS011;63132;52.268;5.192;2023-01-01T16:19:24;19.77;;;5.28;;
74626;SDS011;63132;52.268;5.192;2023-01-01T16:21:50;19.52;;;6.22;;
74626;SDS011;63132;52.268;5.192;2023-01-01T16:24:16;15.93;;;4.80;;
74626;SDS011;63132;52.268;5.192;2023-01-01T16:26:43;23.27;;;5.30;;
74626;SDS011;63132;52.268;5.192;2023-01-01T16:29:09;22.95;;;5.65;;
74626;SDS011;63132;52.268;5.192;2023-01-01T16:31:34;18.25;;;5.68;;
74626;SDS011;63132;52.268;5.192;2023-01-01T16:34:01;20.60;;;5.32;;
74626;SDS011;63132;52.268;5.192;2023-01-01T16:36:27;22.33;;;5.72;;
74626;SDS011;63132;52.268;5.192;2023-01-01T16:38:53;16.50;;;5.22;;
74626;SDS011;63132;52.268;5.192;2023-01-01T16:41:21;18.13;;;4.85;;
74626;SDS011;63132;52.268;5.192;2023-01-01T16:43:47;18.50;;;4.40;;